Terminal Aerodrome Forecast
Issued by NWS

Home | Current Version | Previous Version | Graphics & Text | Print | Product List | Glossary On
Versions: 1 2 3 4 5 6 7 8 9 10 11 12 13 14 15 16 17 18
000
FTUS43 KGRB 201400 AAB
TAFMTW
TAF AMD
KMTW 201421Z 2014/2112 32012G18KT 5SM -RA BR OVC008
     FM201700 28017G27KT P6SM -RA BKN015 OVC025
     FM202200 27015G25KT P6SM SCT025 BKN040
     FM210200 26012KT P6SM BKN040=

USA.gov is the U.S. government's official web portal to all federal, state and local government web resources and services.